Details From SKBO - Eldorado Intl
To SKBG - Palonegro
Flight Number -
Tags Generated
Created
Modified
Stats Distance 157 nm / 291 km
Max Altitude 0 ft / 0 m
Waypoints 2
Social Downloads 8
Likes 0
Share VATSIM

Download

Looking for another format? Having issues loading an existing format? Contact us
Advertisement - Login to hide

Notes

Generated

Route

SKBO SKBG

ID Type Via Altitude Latitude Longitude Leg Dist Tot Dist Heading (true) Name
O SKBO APT - 0 ft / 0 m 4.71050˚ -74.16917˚ - 0 nm - -
O SKBG APT - 0 ft / 0 m 7.13606˚ -73.18839˚ 157 nm 157 nm 22° / 22° -

Altitude Profile

Advertisement - Login to hide

SKBO

Details ICAO SKBO (BOG)
Name Bogota - El Dorado Intl
Region Colombia
Timezone America/Bogota (UTC-5.0)
Stats Elevation 8,361 ft / 2,548 m (AMSL)
Location 4.701594° -74.146946°
Runways 2
Magnetic Variation 7.267° W

METAR

SKBO 160100Z 34005KT 9999 FEW023 12/08 A3030

Decode

TAF

Not found

Departure Runways

ID Width Length Bearing (true) Bearing (mag) Surface Threshold Offset Overrun Length
13L 148 ft / 45 m 12,482 ft / 3,804 m 127.21° 134.48° Asphalt 0 ft / 0 m 0 ft / 0 m
13R 148 ft / 45 m 12,494 ft / 3,808 m 127.23° 134.50° Asphalt 0 ft / 0 m 200 ft / 61 m
31L 148 ft / 45 m 12,494 ft / 3,808 m 307.23° 314.50° Asphalt 0 ft / 0 m 190 ft / 58 m
31R 148 ft / 45 m 12,482 ft / 3,804 m 307.21° 314.48° Asphalt 0 ft / 0 m 0 ft / 0 m

SKBG

Details ICAO SKBG (BGA)
Name PALONEGRO
Region Colombia
Timezone America/Bogota (UTC-5.0)
Stats Elevation 3,896 ft / 1,188 m (AMSL)
Location 7.126500° -73.184764°
Runways 1
Magnetic Variation 8.232° W

METAR

SKBG 160100Z 32003KT 9999 SCT015 20/20 A2997

Decode

TAF

Not found

Destination Runways

ID Width Length Bearing (true) Bearing (mag) Surface Threshold Offset Overrun Length
16 164 ft / 50 m 7,452 ft / 2,271 m 159.37° 167.60° Asphalt 0 ft / 0 m 0 ft / 0 m
34 164 ft / 50 m 7,452 ft / 2,271 m 339.37° 347.60° Asphalt 0 ft / 0 m 0 ft / 0 m

Approach Navaids

Runway Type Ident Frequency Range Bearing (true) Bearing (mag) Slope Elevation
34 Localiser IBGA 110.70 MHz 18 nm / 33 km 339.37° 347.60° - 3,897 ft / 1,188 m (AMSL)
34 Glidescope IBGA 110.70 MHz 10 nm / 19 km 339.37° 347.60° 3.00° 3,897 ft / 1,188 m (AMSL)
34 DME IBGA 110.70 MHz 18 nm / 33 km - - - 3,897 ft / 1,188 m (AMSL)

Popular Alternatives